Time;durP1;ratioP1;P1;durP2;ratioP2;P2;SDS_P1;SDS_P2;PMS_P1;PMS_P2;Temp;Humidity;BMP_temperature;BMP_pressure;BME280_temperature;BME280_humidity;BME280_pressure;Samples;Min_cycle;Max_cycle;Signal;HPM_P1;HPM_P2
2021/11/22 00:01:35;;;;;;;;;10.25;10.25;;;;;;;;5041950;28;11560;-82
2021/11/22 00:04:02;;;;;;;;;12.00;9.00;;;;;;;;5046753;28;11496;-83
2021/11/22 00:06:29;;;;;;;;;8.00;8.00;;;;;;;;5037106;28;11446;-83
2021/11/22 00:08:56;;;;;;;;;9.00;6.00;;;;;;;;5045872;28;11549;-83
2021/11/22 00:11:24;;;;;;;;;9.00;6.00;;;;;;;;5035604;28;11452;-83
2021/11/22 00:13:52;;;;;;;;;8.50;7.00;;;;;;;;5039338;28;11437;-81
2021/11/22 00:16:20;;;;;;;;;10.00;6.00;;;;;;;;5026153;28;11440;-81
2021/11/22 00:18:47;;;;;;;;;6.75;6.75;;;;;;;;5041753;28;11471;-83
2021/11/22 00:21:15;;;;;;;;;7.75;7.75;;;;;;;;5045405;28;11424;-81
2021/11/22 00:23:42;;;;;;;;;6.00;6.00;;;;;;;;5045052;28;11465;-80
2021/11/22 00:26:10;;;;;;;;;6.00;6.00;;;;;;;;5045118;28;11495;-83
2021/11/22 00:28:37;;;;;;;;;1.00;1.00;;;;;;;;5045261;28;11448;-81
2021/11/22 00:31:06;;;;;;;;;9.75;8.00;;;;;;;;5043367;28;11500;-80
2021/11/22 00:33:33;;;;;;;;;6.00;4.75;;;;;;;;5042358;28;11517;-81
2021/11/22 00:36:01;;;;;;;;;5.00;5.00;;;;;;;;5043371;28;11561;-83
2021/11/22 00:38:28;;;;;;;;;6.00;6.00;;;;;;;;5045633;28;11580;-83
2021/11/22 00:40:55;;;;;;;;;4.50;4.50;;;;;;;;5042781;28;12691;-81
2021/11/22 00:43:23;;;;;;;;;5.00;5.00;;;;;;;;5045267;28;11467;-81
2021/11/22 00:45:51;;;;;;;;;4.50;4.50;;;;;;;;5025189;28;11447;-81
2021/11/22 00:48:21;;;;;;;;;6.00;6.00;;;;;;;;5039796;28;11477;-80
2021/11/22 00:50:49;;;;;;;;;6.00;6.00;;;;;;;;5038572;28;11527;-81
2021/11/22 00:53:16;;;;;;;;;11.25;6.00;;;;;;;;5042148;28;12038;-80
2021/11/22 00:55:43;;;;;;;;;7.00;5.75;;;;;;;;5044144;28;11482;-81
2021/11/22 00:58:11;;;;;;;;;5.00;5.00;;;;;;;;5044172;28;11457;-85
2021/11/22 01:00:38;;;;;;;;;11.25;5.00;;;;;;;;5042013;28;11406;-83
2021/11/22 01:03:06;;;;;;;;;7.25;4.25;;;;;;;;5043216;28;11478;-84
2021/11/22 01:05:35;;;;;;;;;5.25;5.25;;;;;;;;5044142;28;11457;-81
2021/11/22 01:08:04;;;;;;;;;5.25;5.25;;;;;;;;5043793;28;11435;-83
2021/11/22 01:10:32;;;;;;;;;7.00;7.00;;;;;;;;5041659;28;11454;-83
2021/11/22 01:12:59;;;;;;;;;7.50;7.50;;;;;;;;5029808;28;11453;-83
2021/11/22 01:15:27;;;;;;;;;8.00;8.00;;;;;;;;5042933;28;12099;-84
2021/11/22 01:17:55;;;;;;;;;11.50;9.00;;;;;;;;5021325;28;11493;-84
2021/11/22 01:20:29;;;;;;;;;16.50;12.00;;;;;;;;5036160;28;11493;-84
2021/11/22 01:22:59;;;;;;;;;9.25;7.75;;;;;;;;5044509;28;11475;-81
2021/11/22 01:25:27;;;;;;;;;12.00;9.00;;;;;;;;5043834;28;11431;-84
2021/11/22 01:27:55;;;;;;;;;2.00;2.00;;;;;;;;5044248;28;11449;-84
2021/11/22 01:30:23;;;;;;;;;12.00;11.25;;;;;;;;5031361;28;11575;-81
2021/11/22 01:32:50;;;;;;;;;12.75;12.75;;;;;;;;5040772;28;11575;-82
2021/11/22 01:35:19;;;;;;;;;14.50;12.75;;;;;;;;5044008;28;11511;-80
2021/11/22 01:37:47;;;;;;;;;9.00;6.50;;;;;;;;5043074;28;11510;-84
2021/11/22 01:40:19;;;;;;;;;8.50;8.50;;;;;;;;5038665;28;11479;-83
2021/11/22 01:42:47;;;;;;;;;8.25;6.00;;;;;;;;5035034;28;11459;-83
2021/11/22 01:45:16;;;;;;;;;5.50;5.50;;;;;;;;5043077;28;11447;-83
2021/11/22 01:47:45;;;;;;;;;10.00;10.00;;;;;;;;5043943;28;11606;-83
2021/11/22 01:50:15;;;;;;;;;8.50;8.50;;;;;;;;5022542;28;12242;-84
2021/11/22 01:52:43;;;;;;;;;8.25;8.25;;;;;;;;5022000;28;11564;-82
2021/11/22 01:55:11;;;;;;;;;8.75;6.75;;;;;;;;5042534;28;11545;-82
2021/11/22 01:57:41;;;;;;;;;12.00;10.00;;;;;;;;5038213;28;11440;-83
2021/11/22 02:00:11;;;;;;;;;14.50;9.00;;;;;;;;5025186;28;11493;-83
2021/11/22 02:02:38;;;;;;;;;12.25;9.50;;;;;;;;5042654;28;11563;-82
2021/11/22 02:05:06;;;;;;;;;11.50;8.50;;;;;;;;5043663;28;11592;-81
2021/11/22 02:07:33;;;;;;;;;10.75;10.00;;;;;;;;5042022;28;11615;-82
2021/11/22 02:10:01;;;;;;;;;9.25;8.00;;;;;;;;5041551;28;11560;-81
2021/11/22 02:12:29;;;;;;;;;12.50;9.50;;;;;;;;5040285;28;11577;-83
2021/11/22 02:14:58;;;;;;;;;8.75;5.25;;;;;;;;5043327;28;12283;-82
2021/11/22 02:17:26;;;;;;;;;7.25;7.25;;;;;;;;5040493;28;11447;-82
2021/11/22 02:19:58;;;;;;;;;9.00;9.00;;;;;;;;5042212;28;11451;-83
2021/11/22 02:22:26;;;;;;;;;11.25;10.00;;;;;;;;5041933;28;11450;-82
2021/11/22 02:24:53;;;;;;;;;12.75;11.75;;;;;;;;5041412;28;11545;-80
2021/11/22 02:27:20;;;;;;;;;13.00;10.50;;;;;;;;5042996;28;11499;-81
2021/11/22 02:29:48;;;;;;;;;19.25;17.25;;;;;;;;5034509;28;11578;-82
2021/11/22 02:32:15;;;;;;;;;13.75;11.00;;;;;;;;5038201;28;12329;-82
2021/11/22 02:34:43;;;;;;;;;22.00;19.50;;;;;;;;5024956;28;11532;-82
2021/11/22 02:37:13;;;;;;;;;17.25;17.25;;;;;;;;5042832;28;11584;-80
2021/11/22 02:39:41;;;;;;;;;8.25;8.25;;;;;;;;5049008;28;12305;-81
2021/11/22 02:42:13;;;;;;;;;25.75;20.75;;;;;;;;5045079;28;11517;-80
2021/11/22 02:44:40;;;;;;;;;8.00;6.00;;;;;;;;5046672;28;11551;-81
2021/11/22 02:47:08;;;;;;;;;9.50;9.25;;;;;;;;5045846;28;12052;-81
2021/11/22 02:49:35;;;;;;;;;17.50;15.75;;;;;;;;5045827;28;11656;-80
2021/11/22 02:52:03;;;;;;;;;10.00;8.00;;;;;;;;5045523;28;11552;-81
2021/11/22 02:54:31;;;;;;;;;23.25;17.00;;;;;;;;5041839;28;11638;-81
2021/11/22 02:56:59;;;;;;;;;20.25;20.00;;;;;;;;5046772;28;11545;-83
2021/11/22 02:59:28;;;;;;;;;26.25;26.00;;;;;;;;5026674;28;11607;-81
2021/11/22 03:01:55;;;;;;;;;19.75;17.50;;;;;;;;5038929;28;11513;-83
2021/11/22 03:04:32;;;;;;;;;16.50;16.50;;;;;;;;5045411;28;11547;-81
2021/11/22 03:07:00;;;;;;;;;13.00;13.00;;;;;;;;5044776;28;11659;-80
2021/11/22 03:09:27;;;;;;;;;17.75;16.25;;;;;;;;5040482;28;11553;-82
2021/11/22 03:11:56;;;;;;;;;20.50;19.25;;;;;;;;5045250;28;11547;-81
2021/11/22 03:14:25;;;;;;;;;21.00;19.75;;;;;;;;5053516;28;11639;-80
2021/11/22 03:16:53;;;;;;;;;22.00;20.00;;;;;;;;5045011;28;12344;-81
2021/11/22 03:19:20;;;;;;;;;23.50;20.00;;;;;;;;5047054;28;11657;-82
2021/11/22 03:21:47;;;;;;;;;4.50;4.00;;;;;;;;5041635;28;11699;-79
2021/11/22 03:24:16;;;;;;;;;17.25;15.00;;;;;;;;5045461;28;11634;-81
2021/11/22 03:26:43;;;;;;;;;30.25;22.25;;;;;;;;5045704;28;11562;-83
2021/11/22 03:29:12;;;;;;;;;21.50;21.50;;;;;;;;5048736;28;11830;-82
2021/11/22 03:31:40;;;;;;;;;15.50;15.50;;;;;;;;5045285;28;11628;-82
2021/11/22 03:34:10;;;;;;;;;23.25;17.75;;;;;;;;5041904;28;11665;-82
2021/11/22 03:36:37;;;;;;;;;16.00;14.00;;;;;;;;5046727;28;11635;-82
2021/11/22 03:39:10;;;;;;;;;13.25;13.25;;;;;;;;5046204;28;11532;-81
2021/11/22 03:41:37;;;;;;;;;17.75;16.50;;;;;;;;5043111;28;11724;-82
2021/11/22 03:44:12;;;;;;;;;17.75;15.50;;;;;;;;5045754;28;11556;-83
2021/11/22 03:46:43;;;;;;;;;9.50;9.50;;;;;;;;5044737;28;11575;-82
2021/11/22 03:49:11;;;;;;;;;13.25;13.25;;;;;;;;5020348;28;11631;-82
2021/11/22 03:51:38;;;;;;;;;14.25;12.25;;;;;;;;5043957;28;12326;-82
2021/11/22 03:54:06;;;;;;;;;16.25;15.00;;;;;;;;5044647;28;11563;-82
2021/11/22 03:56:33;;;;;;;;;12.00;12.00;;;;;;;;5044078;28;11675;-82
2021/11/22 03:59:01;;;;;;;;;10.00;10.00;;;;;;;;5045967;28;11634;-81
2021/11/22 04:01:28;;;;;;;;;23.00;16.75;;;;;;;;5043241;28;11486;-83
2021/11/22 04:03:57;;;;;;;;;12.00;9.00;;;;;;;;5044231;28;11549;-81
2021/11/22 04:06:25;;;;;;;;;21.50;17.75;;;;;;;;5043592;28;11651;-82
2021/11/22 04:08:52;;;;;;;;;23.25;20.75;;;;;;;;5044385;28;11595;-82
2021/11/22 04:11:20;;;;;;;;;29.50;19.50;;;;;;;;5045119;28;11657;-82
2021/11/22 04:13:48;;;;;;;;;20.50;20.50;;;;;;;;5043761;28;11701;-81
2021/11/22 04:16:16;;;;;;;;;16.25;13.00;;;;;;;;5040688;28;11696;-81
2021/11/22 04:18:44;;;;;;;;;12.75;12.75;;;;;;;;5049300;28;11543;-82
2021/11/22 04:21:14;;;;;;;;;16.75;15.25;;;;;;;;5043676;28;11656;-81
2021/11/22 04:23:41;;;;;;;;;12.00;12.00;;;;;;;;5044666;28;11665;-82
2021/11/22 04:26:10;;;;;;;;;13.50;12.25;;;;;;;;5043729;28;11518;-83
2021/11/22 04:28:38;;;;;;;;;15.75;15.75;;;;;;;;5045983;28;11588;-83
2021/11/22 04:31:05;;;;;;;;;19.00;16.75;;;;;;;;5042668;28;11512;-83
2021/11/22 04:33:33;;;;;;;;;16.50;16.50;;;;;;;;5044658;28;11625;-83
2021/11/22 04:36:00;;;;;;;;;17.00;12.00;;;;;;;;5045552;28;11556;-83
2021/11/22 04:38:29;;;;;;;;;14.00;9.50;;;;;;;;5043900;28;11580;-81
2021/11/22 04:40:56;;;;;;;;;21.00;20.75;;;;;;;;5040407;28;12115;-83
2021/11/22 04:43:24;;;;;;;;;17.75;17.75;;;;;;;;5043527;28;11551;-82
2021/11/22 04:45:51;;;;;;;;;12.00;12.00;;;;;;;;5042967;28;11563;-83
2021/11/22 04:48:18;;;;;;;;;16.50;16.00;;;;;;;;5042868;28;11566;-81
2021/11/22 04:50:46;;;;;;;;;24.50;22.50;;;;;;;;5044487;28;11554;-82
2021/11/22 04:53:13;;;;;;;;;23.50;20.75;;;;;;;;5025072;28;11553;-82
2021/11/22 04:55:42;;;;;;;;;22.25;20.25;;;;;;;;5043601;28;11528;-81
2021/11/22 04:58:10;;;;;;;;;21.00;18.50;;;;;;;;5043109;28;11572;-82
2021/11/22 05:00:37;;;;;;;;;24.00;22.00;;;;;;;;5047960;28;11496;-83
2021/11/22 05:03:06;;;;;;;;;23.75;19.25;;;;;;;;5043357;28;11667;-82
2021/11/22 05:05:34;;;;;;;;;13.25;13.25;;;;;;;;5042196;28;11544;-83
2021/11/22 05:08:05;;;;;;;;;16.00;16.00;;;;;;;;5040261;28;11668;-81
2021/11/22 05:10:33;;;;;;;;;20.00;20.00;;;;;;;;5041749;28;11648;-81
2021/11/22 05:13:04;;;;;;;;;22.75;22.50;;;;;;;;5050204;28;11573;-76
2021/11/22 05:15:32;;;;;;;;;19.50;18.50;;;;;;;;5043226;28;12347;-80
2021/11/22 05:17:59;;;;;;;;;21.00;19.00;;;;;;;;5039835;28;11637;-77
2021/11/22 05:20:28;;;;;;;;;21.25;19.75;;;;;;;;5043956;28;11553;-80
2021/11/22 05:22:56;;;;;;;;;20.75;18.50;;;;;;;;5024426;28;11657;-78
2021/11/22 05:25:23;;;;;;;;;20.25;20.25;;;;;;;;5039258;28;11566;-79
2021/11/22 05:27:51;;;;;;;;;20.00;20.00;;;;;;;;5042847;28;11606;-82
2021/11/22 05:30:22;;;;;;;;;22.25;20.00;;;;;;;;5023674;28;11698;-79
2021/11/22 05:32:49;;;;;;;;;20.25;17.25;;;;;;;;5039751;28;11566;-79
2021/11/22 05:35:17;;;;;;;;;18.00;18.00;;;;;;;;5039006;28;11562;-82
2021/11/22 05:37:44;;;;;;;;;18.00;17.75;;;;;;;;5042078;28;11592;-77
2021/11/22 05:40:12;;;;;;;;;18.50;18.25;;;;;;;;5041086;28;11551;-78
2021/11/22 05:42:40;;;;;;;;;27.00;22.50;;;;;;;;5041927;28;11563;-81
2021/11/22 05:45:07;;;;;;;;;18.00;18.00;;;;;;;;5040928;28;11581;-78
2021/11/22 05:47:36;;;;;;;;;20.25;18.00;;;;;;;;5024507;28;11560;-82
2021/11/22 05:50:06;;;;;;;;;20.25;18.25;;;;;;;;5040196;28;11577;-81
2021/11/22 05:52:34;;;;;;;;;24.25;22.25;;;;;;;;5038969;28;11557;-81
2021/11/22 05:55:01;;;;;;;;;19.50;17.25;;;;;;;;5038573;28;12405;-81
2021/11/22 05:57:29;;;;;;;;;20.75;19.50;;;;;;;;5038616;28;11802;-76
2021/11/22 05:59:56;;;;;;;;;20.25;20.00;;;;;;;;5038444;28;11542;-79
2021/11/22 06:02:24;;;;;;;;;30.50;23.00;;;;;;;;5005715;28;11504;-78
2021/11/22 06:04:52;;;;;;;;;23.25;21.25;;;;;;;;5043400;28;12291;-77
2021/11/22 06:07:20;;;;;;;;;20.50;18.50;;;;;;;;5040985;28;11530;-81
2021/11/22 06:09:47;;;;;;;;;19.00;15.50;;;;;;;;5024821;28;11543;-80
2021/11/22 06:12:14;;;;;;;;;21.25;19.50;;;;;;;;5041908;28;11675;-81
2021/11/22 06:14:42;;;;;;;;;19.25;16.50;;;;;;;;5044053;28;11571;-82
2021/11/22 06:17:09;;;;;;;;;22.50;16.25;;;;;;;;5046492;28;11584;-81
2021/11/22 06:19:36;;;;;;;;;13.50;13.25;;;;;;;;5046051;28;11560;-82
2021/11/22 06:22:05;;;;;;;;;23.00;19.50;;;;;;;;5044021;28;11579;-81
2021/11/22 06:24:32;;;;;;;;;15.00;15.00;;;;;;;;5045295;28;11570;-84
2021/11/22 06:27:01;;;;;;;;;13.00;13.00;;;;;;;;5026322;28;12390;-77
2021/11/22 06:29:29;;;;;;;;;15.75;15.75;;;;;;;;5046302;28;11496;-75
2021/11/22 06:31:58;;;;;;;;;19.00;17.25;;;;;;;;5043967;28;11525;-85
2021/11/22 06:37:09;;;;;;;;;15.75;15.75;;;;;;;;5013294;28;11680;-77
2021/11/22 06:39:36;;;;;;;;;10.50;9.00;;;;;;;;5044685;28;11705;-77
2021/11/22 06:42:05;;;;;;;;;20.50;13.50;;;;;;;;5042438;28;11548;-77
2021/11/22 06:44:33;;;;;;;;;18.75;13.25;;;;;;;;5027911;28;12125;-77
2021/11/22 06:47:00;;;;;;;;;18.00;14.00;;;;;;;;5026647;28;11554;-79
2021/11/22 06:49:28;;;;;;;;;11.00;11.00;;;;;;;;5040192;28;11586;-79
2021/11/22 06:51:55;;;;;;;;;9.75;9.75;;;;;;;;5045966;28;11634;-79
2021/11/22 07:01:55;;;;;;;;;15.75;14.25;;;;;;;;4797012;29;11681;-79
2021/11/22 07:04:25;;;;;;;;;15.50;15.50;;;;;;;;4800069;29;11708;-80
2021/11/22 07:06:52;;;;;;;;;13.00;13.00;;;;;;;;4906658;29;11581;-81
2021/11/22 07:09:20;;;;;;;;;12.75;11.50;;;;;;;;4932154;28;11628;-79
2021/11/22 07:11:48;;;;;;;;;13.25;9.50;;;;;;;;4979805;28;11534;-80
2021/11/22 07:14:16;;;;;;;;;9.75;9.75;;;;;;;;5046815;28;11581;-79
2021/11/22 07:16:44;;;;;;;;;9.00;8.00;;;;;;;;5045300;28;11628;-80
2021/11/22 07:19:11;;;;;;;;;9.00;9.00;;;;;;;;5047099;28;11460;-80
2021/11/22 07:21:38;;;;;;;;;13.25;13.25;;;;;;;;5045132;28;11480;-81
2021/11/22 07:24:06;;;;;;;;;12.00;12.00;;;;;;;;5046224;28;11555;-79
2021/11/22 07:26:34;;;;;;;;;12.00;12.00;;;;;;;;5056357;28;11539;-79
2021/11/22 07:29:04;;;;;;;;;11.00;9.50;;;;;;;;5028137;28;11695;-80
2021/11/22 07:31:31;;;;;;;;;9.00;9.00;;;;;;;;5041721;28;11483;-80
2021/11/22 07:33:59;;;;;;;;;9.00;9.00;;;;;;;;5044670;28;11490;-80
2021/11/22 07:36:27;;;;;;;;;13.75;13.00;;;;;;;;5039861;28;11558;-78
2021/11/22 07:38:55;;;;;;;;;12.00;12.00;;;;;;;;5046662;28;11531;-75
2021/11/22 07:41:22;;;;;;;;;12.00;12.00;;;;;;;;5037739;28;11541;-76
2021/11/22 07:43:49;;;;;;;;;10.75;8.75;;;;;;;;5049826;28;11636;-74
2021/11/22 07:46:18;;;;;;;;;9.25;9.25;;;;;;;;5037181;28;11581;-74
2021/11/22 07:48:46;;;;;;;;;9.75;9.75;;;;;;;;5040904;28;11482;-74
2021/11/22 07:51:13;;;;;;;;;11.50;10.00;;;;;;;;5035754;28;11554;-76
2021/11/22 07:53:41;;;;;;;;;12.75;10.00;;;;;;;;5027915;28;11480;-74
2021/11/22 07:56:09;;;;;;;;;15.75;10.00;;;;;;;;5043465;28;11497;-74
2021/11/22 07:58:36;;;;;;;;;13.25;9.75;;;;;;;;5042056;28;11499;-75
2021/11/22 08:01:04;;;;;;;;;9.75;7.25;;;;;;;;5038659;28;11418;-75
2021/11/22 08:03:33;;;;;;;;;13.00;10.25;;;;;;;;5028103;28;11521;-75
2021/11/22 08:06:02;;;;;;;;;10.00;8.50;;;;;;;;5045238;28;11548;-74
2021/11/22 08:08:31;;;;;;;;;13.50;10.00;;;;;;;;5044078;28;12214;-74
2021/11/22 08:11:07;;;;;;;;;5.75;5.75;;;;;;;;5027152;28;11491;-74
2021/11/22 08:13:35;;;;;;;;;10.00;9.50;;;;;;;;5043653;28;11509;-74
2021/11/22 08:16:05;;;;;;;;;8.25;8.25;;;;;;;;5045902;28;11468;-75
2021/11/22 08:18:34;;;;;;;;;9.50;9.50;;;;;;;;5024899;28;11544;-78
2021/11/22 08:21:02;;;;;;;;;7.00;7.00;;;;;;;;5039752;28;11468;-74
2021/11/22 08:23:29;;;;;;;;;6.00;6.00;;;;;;;;5045242;28;11453;-75
2021/11/22 08:25:56;;;;;;;;;10.00;8.00;;;;;;;;5024306;28;11496;-75
2021/11/22 08:28:24;;;;;;;;;9.00;8.00;;;;;;;;5043848;28;11444;-76
2021/11/22 08:30:52;;;;;;;;;6.00;5.25;;;;;;;;5038717;28;11518;-76
2021/11/22 08:33:19;;;;;;;;;12.50;9.50;;;;;;;;5043423;28;11472;-75
2021/11/22 08:35:49;;;;;;;;;10.25;8.25;;;;;;;;5043337;28;11616;-74
2021/11/22 08:38:17;;;;;;;;;11.50;11.50;;;;;;;;5048920;28;11553;-74
2021/11/22 08:40:46;;;;;;;;;9.50;9.50;;;;;;;;5042493;28;11483;-76
2021/11/22 08:43:18;;;;;;;;;12.00;10.75;;;;;;;;5043444;28;11527;-75
2021/11/22 08:45:47;;;;;;;;;17.00;14.00;;;;;;;;5026648;28;11493;-77
2021/11/22 08:48:14;;;;;;;;;12.75;12.00;;;;;;;;5042980;28;11614;-76
2021/11/22 08:50:42;;;;;;;;;8.25;8.25;;;;;;;;5042747;28;11466;-76
2021/11/22 08:53:10;;;;;;;;;8.50;8.50;;;;;;;;5024951;28;11444;-77
2021/11/22 08:55:38;;;;;;;;;5.50;4.50;;;;;;;;5042208;28;11477;-76
2021/11/22 08:58:05;;;;;;;;;9.50;8.25;;;;;;;;5044090;28;11443;-76
2021/11/22 09:00:36;;;;;;;;;9.25;9.00;;;;;;;;5039503;28;12228;-77
2021/11/22 09:03:04;;;;;;;;;8.75;8.25;;;;;;;;5045396;28;11594;-75
2021/11/22 09:05:32;;;;;;;;;10.75;10.75;;;;;;;;5038732;28;11571;-75
2021/11/22 09:08:00;;;;;;;;;8.75;6.00;;;;;;;;5038732;28;11502;-75
2021/11/22 09:10:30;;;;;;;;;9.00;9.00;;;;;;;;5040636;28;11443;-75
2021/11/22 09:12:57;;;;;;;;;8.25;8.25;;;;;;;;5038418;28;11613;-78
2021/11/22 09:15:25;;;;;;;;;3.75;3.75;;;;;;;;5043828;28;11563;-77
2021/11/22 09:17:52;;;;;;;;;7.00;3.50;;;;;;;;5041845;28;11443;-76
2021/11/22 09:20:20;;;;;;;;;7.25;7.25;;;;;;;;5038000;28;12261;-74
2021/11/22 09:22:47;;;;;;;;;6.75;6.75;;;;;;;;5037399;28;12658;-75
2021/11/22 09:25:15;;;;;;;;;12.00;9.50;;;;;;;;5044828;28;11474;-74
2021/11/22 09:27:47;;;;;;;;;13.50;10.00;;;;;;;;5039918;28;11500;-76
2021/11/22 09:30:15;;;;;;;;;9.00;8.75;;;;;;;;5024705;28;11452;-75
2021/11/22 09:32:42;;;;;;;;;8.50;8.50;;;;;;;;5041467;28;12206;-76
2021/11/22 09:35:10;;;;;;;;;6.75;6.75;;;;;;;;5042479;28;11470;-75
2021/11/22 09:37:38;;;;;;;;;9.50;5.50;;;;;;;;5039162;28;11412;-76
2021/11/22 09:40:07;;;;;;;;;6.00;6.00;;;;;;;;5047474;28;11549;-75
2021/11/22 09:42:35;;;;;;;;;6.75;5.00;;;;;;;;5039019;28;12088;-74
2021/11/22 09:45:05;;;;;;;;;7.25;7.25;;;;;;;;5042731;28;11546;-77
2021/11/22 09:47:34;;;;;;;;;6.50;6.50;;;;;;;;5041408;28;11555;-76
2021/11/22 09:50:02;;;;;;;;;7.00;7.00;;;;;;;;5042251;28;11459;-76
2021/11/22 09:52:30;;;;;;;;;2.25;2.25;;;;;;;;5040138;28;11544;-82
2021/11/22 09:54:58;;;;;;;;;7.00;7.00;;;;;;;;5039239;28;11496;-78
2021/11/22 09:57:25;;;;;;;;;5.00;5.00;;;;;;;;5035673;28;12217;-79
2021/11/22 09:59:52;;;;;;;;;6.75;6.00;;;;;;;;5026535;28;11574;-80
2021/11/22 10:02:21;;;;;;;;;6.75;5.00;;;;;;;;5036372;28;11421;-78
2021/11/22 10:04:49;;;;;;;;;5.00;5.00;;;;;;;;5042728;28;12220;-78
2021/11/22 10:07:19;;;;;;;;;5.50;5.00;;;;;;;;5041962;28;11426;-77
2021/11/22 10:09:48;;;;;;;;;8.25;8.25;;;;;;;;5040441;28;11529;-75
2021/11/22 10:12:21;;;;;;;;;5.00;5.00;;;;;;;;5021577;28;11448;-76
2021/11/22 10:14:52;;;;;;;;;11.00;5.75;;;;;;;;5028249;28;11613;-76
2021/11/22 10:17:35;;;;;;;;;6.00;6.00;;;;;;;;5021280;28;11670;-76
2021/11/22 10:20:17;;;;;;;;;10.50;10.50;;;;;;;;5037080;28;11445;-76
2021/11/22 10:22:50;;;;;;;;;6.00;6.00;;;;;;;;5041345;28;11408;-76
2021/11/22 10:25:20;;;;;;;;;9.00;9.00;;;;;;;;5042687;28;12363;-75
2021/11/22 10:27:49;;;;;;;;;9.25;9.25;;;;;;;;5025539;28;11457;-75
2021/11/22 10:30:21;;;;;;;;;11.25;9.25;;;;;;;;5038046;28;11484;-76
2021/11/22 10:32:55;;;;;;;;;6.25;6.25;;;;;;;;5037907;28;11524;-76
2021/11/22 10:35:24;;;;;;;;;10.75;8.50;;;;;;;;5041434;28;11435;-76
2021/11/22 10:37:56;;;;;;;;;10.25;8.75;;;;;;;;5017301;28;11533;-76
2021/11/22 10:40:25;;;;;;;;;9.00;7.50;;;;;;;;5026254;28;11475;-76
2021/11/22 10:42:52;;;;;;;;;9.75;7.75;;;;;;;;5043311;28;11532;-76
2021/11/22 10:45:25;;;;;;;;;10.75;9.50;;;;;;;;5040145;28;12313;-77
2021/11/22 10:48:18;;;;;;;;;10.00;7.25;;;;;;;;5037929;28;11551;-77
2021/11/22 10:50:52;;;;;;;;;10.25;9.75;;;;;;;;5040110;28;11466;-76
2021/11/22 10:53:34;;;;;;;;;10.25;7.50;;;;;;;;5034575;28;11469;-77
2021/11/22 10:56:03;;;;;;;;;13.25;9.00;;;;;;;;5039949;28;11320;-77
2021/11/22 10:58:33;;;;;;;;;5.75;5.75;;;;;;;;5035964;28;11582;-78
2021/11/22 11:01:07;;;;;;;;;12.50;10.75;;;;;;;;5045126;28;11205;-77
2021/11/22 11:03:36;;;;;;;;;11.50;11.50;;;;;;;;5040138;28;12066;-76
2021/11/22 11:06:04;;;;;;;;;11.00;9.25;;;;;;;;5044284;28;11472;-75
2021/11/22 11:08:32;;;;;;;;;10.50;10.00;;;;;;;;5045550;28;11165;-75
2021/11/22 11:11:14;;;;;;;;;11.00;10.25;;;;;;;;5044062;28;11129;-76
2021/11/22 11:13:46;;;;;;;;;12.00;10.25;;;;;;;;5025188;28;11146;-77
2021/11/22 11:16:14;;;;;;;;;12.75;10.50;;;;;;;;5044695;28;11271;-77
2021/11/22 11:18:56;;;;;;;;;6.50;6.50;;;;;;;;5043678;28;10867;-77
2021/11/22 11:21:26;;;;;;;;;7.25;6.00;;;;;;;;5040838;28;11338;-77
2021/11/22 11:23:56;;;;;;;;;12.75;12.00;;;;;;;;5042805;28;10931;-77
2021/11/22 11:26:25;;;;;;;;;11.50;10.50;;;;;;;;5041980;28;10930;-77
2021/11/22 11:28:52;;;;;;;;;13.75;13.75;;;;;;;;5045674;28;10823;-78
2021/11/22 11:31:20;;;;;;;;;13.50;12.25;;;;;;;;5044674;28;10810;-77
2021/11/22 11:33:49;;;;;;;;;13.25;11.50;;;;;;;;5040438;28;10768;-77
2021/11/22 11:36:30;;;;;;;;;16.75;15.00;;;;;;;;5039122;28;10787;-78
2021/11/22 11:39:11;;;;;;;;;10.00;10.00;;;;;;;;5047262;28;10607;-77
2021/11/22 11:41:47;;;;;;;;;9.50;9.50;;;;;;;;5042412;28;10575;-76
2021/11/22 11:44:30;;;;;;;;;15.25;14.75;;;;;;;;5042962;28;11442;-76
2021/11/22 11:47:09;;;;;;;;;12.25;12.25;;;;;;;;5040027;28;11442;-76
2021/11/22 11:49:38;;;;;;;;;16.75;13.00;;;;;;;;5042886;28;10803;-76
2021/11/22 11:52:24;;;;;;;;;15.75;11.75;;;;;;;;5042917;28;10761;-76
2021/11/22 11:54:52;;;;;;;;;19.50;17.75;;;;;;;;5041612;28;10757;-76
2021/11/22 11:57:20;;;;;;;;;12.00;11.00;;;;;;;;5045295;28;10658;-75
2021/11/22 11:59:47;;;;;;;;;15.75;15.75;;;;;;;;5043210;28;10488;-74
2021/11/22 12:02:25;;;;;;;;;14.00;14.00;;;;;;;;5040862;28;10782;-76
2021/11/22 12:05:08;;;;;;;;;7.75;2.25;;;;;;;;5041092;28;10663;-76
2021/11/22 12:07:38;;;;;;;;;14.00;9.75;;;;;;;;5038833;28;10920;-75
2021/11/22 12:10:15;;;;;;;;;13.00;13.00;;;;;;;;5036713;28;10580;-76
2021/11/22 12:12:46;;;;;;;;;14.50;11.75;;;;;;;;5032546;28;10639;-76
2021/11/22 12:15:18;;;;;;;;;12.50;11.00;;;;;;;;5042345;28;10640;-75
2021/11/22 12:17:54;;;;;;;;;10.00;10.00;;;;;;;;5040630;28;10558;-75
2021/11/22 12:20:47;;;;;;;;;10.50;10.25;;;;;;;;5044538;28;10687;-75
2021/11/22 12:23:17;;;;;;;;;14.00;12.25;;;;;;;;5044646;28;10795;-77
2021/11/22 12:25:48;;;;;;;;;13.00;13.00;;;;;;;;5037523;28;10894;-77
2021/11/22 12:28:31;;;;;;;;;9.25;8.25;;;;;;;;5044702;28;10909;-81
2021/11/22 12:31:04;;;;;;;;;19.00;14.00;;;;;;;;5026454;28;10757;-77
2021/11/22 12:33:34;;;;;;;;;18.75;15.25;;;;;;;;5039863;28;10828;-81
2021/11/22 12:36:05;;;;;;;;;14.25;13.75;;;;;;;;5043516;28;10666;-79
2021/11/22 12:38:37;;;;;;;;;14.25;10.50;;;;;;;;5045936;28;10551;-80
2021/11/22 12:41:06;;;;;;;;;15.75;12.25;;;;;;;;5034329;28;10420;-80
2021/11/22 12:43:42;;;;;;;;;15.00;15.00;;;;;;;;5034157;28;10592;-79
2021/11/22 12:46:11;;;;;;;;;15.25;12.75;;;;;;;;5032998;28;10502;-79
2021/11/22 12:48:40;;;;;;;;;19.25;19.25;;;;;;;;5040235;28;10274;-79
2021/11/22 12:51:12;;;;;;;;;17.00;15.75;;;;;;;;5042248;28;10550;-79
2021/11/22 12:53:42;;;;;;;;;17.00;15.50;;;;;;;;5042169;28;10129;-79
2021/11/22 12:56:10;;;;;;;;;22.00;19.25;;;;;;;;5043156;28;10041;-79
2021/11/22 12:58:37;;;;;;;;;23.50;21.25;;;;;;;;5044391;28;10305;-78
2021/11/22 13:01:06;;;;;;;;;18.00;16.00;;;;;;;;5035284;28;10406;-79
2021/11/22 13:03:34;;;;;;;;;15.50;15.50;;;;;;;;5041394;28;10248;-79
2021/11/22 13:06:04;;;;;;;;;24.25;16.00;;;;;;;;5035451;28;10389;-79
2021/11/22 13:08:49;;;;;;;;;12.75;11.00;;;;;;;;5025949;28;10345;-80
2021/11/22 13:11:24;;;;;;;;;19.50;16.25;;;;;;;;5042573;28;10423;-79
2021/11/22 13:13:57;;;;;;;;;16.25;15.25;;;;;;;;5035531;28;10322;-78
2021/11/22 13:16:27;;;;;;;;;22.00;20.00;;;;;;;;5042598;28;10146;-80
2021/11/22 13:18:57;;;;;;;;;16.00;10.50;;;;;;;;5034270;28;10284;-79
2021/11/22 13:21:27;;;;;;;;;12.50;12.50;;;;;;;;5026979;28;10659;-79
2021/11/22 13:24:01;;;;;;;;;11.75;11.75;;;;;;;;5044983;28;10933;-78
2021/11/22 13:26:31;;;;;;;;;14.00;14.00;;;;;;;;5042430;28;10872;-79
2021/11/22 13:29:01;;;;;;;;;15.00;13.00;;;;;;;;5025081;28;10189;-78
2021/11/22 13:31:34;;;;;;;;;11.25;11.25;;;;;;;;5040357;28;11070;-79
2021/11/22 13:34:03;;;;;;;;;14.25;14.25;;;;;;;;5033933;28;11146;-80
2021/11/22 13:36:33;;;;;;;;;8.00;8.00;;;;;;;;5034697;28;10346;-78
2021/11/22 13:39:10;;;;;;;;;15.00;13.00;;;;;;;;5043159;28;10343;-78
2021/11/22 13:41:38;;;;;;;;;14.00;13.00;;;;;;;;5042835;28;10208;-79
2021/11/22 13:44:09;;;;;;;;;16.00;14.25;;;;;;;;5043103;28;10432;-79
2021/11/22 13:46:41;;;;;;;;;12.00;12.00;;;;;;;;5026115;28;10330;-79
2021/11/22 13:49:09;;;;;;;;;11.25;9.00;;;;;;;;5025180;28;10322;-78
2021/11/22 13:51:39;;;;;;;;;13.00;13.00;;;;;;;;5039820;28;10088;-78
2021/11/22 13:54:09;;;;;;;;;13.00;13.00;;;;;;;;5042463;28;10140;-78
2021/11/22 13:56:39;;;;;;;;;12.00;10.50;;;;;;;;5043724;28;10252;-79
2021/11/22 13:59:19;;;;;;;;;12.75;12.75;;;;;;;;5044145;28;10269;-78
2021/11/22 14:01:48;;;;;;;;;10.25;10.25;;;;;;;;5042787;28;10503;-78
2021/11/22 14:04:17;;;;;;;;;15.00;10.75;;;;;;;;5042670;28;11131;-78
2021/11/22 14:06:44;;;;;;;;;10.00;10.00;;;;;;;;5043875;28;10282;-78
2021/11/22 14:09:14;;;;;;;;;12.00;10.00;;;;;;;;5042814;28;10381;-78
2021/11/22 14:11:49;;;;;;;;;10.50;10.50;;;;;;;;5044047;28;10211;-78
2021/11/22 14:14:19;;;;;;;;;7.75;7.75;;;;;;;;5025038;28;10265;-78
2021/11/22 14:16:50;;;;;;;;;12.00;12.00;;;;;;;;5043502;28;10334;-78
2021/11/22 14:19:18;;;;;;;;;16.50;12.00;;;;;;;;5043013;28;10260;-77
2021/11/22 14:21:47;;;;;;;;;17.25;11.50;;;;;;;;5016182;28;10330;-82
2021/11/22 14:24:18;;;;;;;;;10.75;10.75;;;;;;;;5039414;28;11226;-77
2021/11/22 14:26:48;;;;;;;;;11.50;10.00;;;;;;;;5037690;28;10377;-77
2021/11/22 14:29:18;;;;;;;;;8.50;8.50;;;;;;;;5035672;28;10462;-78
2021/11/22 14:31:51;;;;;;;;;11.00;11.00;;;;;;;;5037169;28;10349;-80
2021/11/22 14:34:22;;;;;;;;;9.00;9.00;;;;;;;;5024680;28;10403;-79
2021/11/22 14:36:51;;;;;;;;;14.75;13.75;;;;;;;;5041216;28;10435;-78
2021/11/22 14:39:28;;;;;;;;;9.00;9.00;;;;;;;;5039718;28;10426;-79
2021/11/22 14:41:55;;;;;;;;;12.00;8.00;;;;;;;;5041353;28;10490;-80
2021/11/22 14:44:23;;;;;;;;;7.00;7.00;;;;;;;;5028354;28;11375;-83
2021/11/22 14:46:52;;;;;;;;;11.25;7.75;;;;;;;;5035644;28;10434;-79
2021/11/22 14:49:26;;;;;;;;;11.00;11.00;;;;;;;;5032078;28;10388;-79